Airport View

Enter AWOS ICAO identifier for current METAR.

ex. KFNL

KATS 191915Z AUTO VRB03G11KT 10SM CLR 34/06 A2992 RMK AO2

19 Jun 2019 19:18

Frequency: 126.725

Phone: 575-748-2103

Other Area AWOS: KROW - KCNM - KGDP - KHOB

TAF KROW 191725Z 1918/2018 32010KT P6SM SKC FM192000 27010G18KT P6SM FEW150 FM200200 24009KT P6SM FEW150 FM200800 VRB05KT P6SM SKC